Time;durP1;ratioP1;P1;durP2;ratioP2;P2;SDS_P1;SDS_P2;PMS_P1;PMS_P2;Temp;Humidity;BMP_temperature;BMP_pressure;BME280_temperature;BME280_humidity;BME280_pressure;Samples;Min_cycle;Max_cycle;Signal;HPM_P1;HPM_P2
2022/08/03 00:00:50;;;;;;;;;;;14.60;99.90;;;;;;5053766;28;19975;-67
2022/08/03 00:03:17;;;;;;;;;;;14.60;99.90;;;;;;5053600;28;19909;-69
2022/08/03 00:05:43;;;;;;;;;;;14.60;99.90;;;;;;5053790;28;19912;-69
2022/08/03 00:08:10;;;;;;;;;;;14.60;99.90;;;;;;5050963;28;19920;-69
2022/08/03 00:10:37;;;;;;;;;;;14.60;99.90;;;;;;5043246;28;20406;-69
2022/08/03 00:13:04;;;;;;;;;;;14.70;99.90;;;;;;5032892;28;19920;-69
2022/08/03 00:15:31;;;;;;;;;;;14.70;99.90;;;;;;5033407;28;19909;-69
2022/08/03 00:17:57;;;;;;;;;;;14.80;99.90;;;;;;5051072;28;20338;-69
2022/08/03 00:20:24;;;;;;;;;;;14.80;99.90;;;;;;5051899;28;19920;-69
2022/08/03 00:22:51;;;;;;;;;;;14.80;99.90;;;;;;5053414;28;19916;-69
2022/08/03 00:25:18;;;;;;;;;;;14.80;99.90;;;;;;5053340;28;19909;-69
2022/08/03 00:27:44;;;;;;;;;;;14.80;99.90;;;;;;5053529;28;19944;-69
2022/08/03 00:30:11;;;;;;;;;;;14.80;99.90;;;;;;5053349;28;19908;-69
2022/08/03 00:32:38;;;;;;;;;;;14.80;99.90;;;;;;5053159;28;19908;-69
2022/08/03 00:35:05;;;;;;;;;;;14.80;99.90;;;;;;5053338;28;19913;-69
2022/08/03 00:37:32;;;;;;;;;;;14.80;99.90;;;;;;5053049;28;19909;-69
2022/08/03 00:39:59;;;;;;;;;;;14.90;99.90;;;;;;5053253;28;20390;-69
2022/08/03 00:42:26;;;;;;;;;;;14.90;99.90;;;;;;5053142;28;19909;-69
2022/08/03 00:44:52;;;;;;;;;;;14.90;99.90;;;;;;5051971;28;20043;-69
2022/08/03 00:47:19;;;;;;;;;;;15.00;99.90;;;;;;5052654;28;19931;-69
2022/08/03 00:49:46;;;;;;;;;;;15.00;99.90;;;;;;5053109;28;19909;-70
2022/08/03 00:52:13;;;;;;;;;;;15.00;99.90;;;;;;5052849;28;19909;-70
2022/08/03 00:54:40;;;;;;;;;;;15.10;99.90;;;;;;5051717;28;19917;-69
2022/08/03 00:57:07;;;;;;;;;;;15.10;99.90;;;;;;5053185;28;19909;-69
2022/08/03 00:59:33;;;;;;;;;;;15.20;99.90;;;;;;5053122;28;20004;-69
2022/08/03 01:02:00;;;;;;;;;;;15.20;99.90;;;;;;5053191;28;19909;-69
2022/08/03 01:04:27;;;;;;;;;;;15.30;99.90;;;;;;5053114;28;20342;-69
2022/08/03 01:07:01;;;;;;;;;;;15.30;99.90;;;;;;5052719;28;20004;-69
2022/08/03 01:09:45;;;;;;;;;;;15.40;99.90;;;;;;5053204;28;19908;-69
2022/08/03 01:12:26;;;;;;;;;;;15.40;99.90;;;;;;5052835;28;19909;-69
2022/08/03 01:15:02;;;;;;;;;;;15.50;99.90;;;;;;5052967;28;19917;-69
2022/08/03 01:17:33;;;;;;;;;;;15.60;99.90;;;;;;5052982;28;19948;-69
2022/08/03 01:20:06;;;;;;;;;;;15.80;99.90;;;;;;5052878;28;20275;-69
2022/08/03 01:22:39;;;;;;;;;;;15.90;99.90;;;;;;5052766;28;19917;-69
2022/08/03 01:25:09;;;;;;;;;;;16.10;99.90;;;;;;5052956;28;19962;-69
2022/08/03 01:27:36;;;;;;;;;;;16.20;99.90;;;;;;5052637;28;20270;-69
2022/08/03 01:30:11;;;;;;;;;;;16.40;99.90;;;;;;5051467;28;19948;-69
2022/08/03 01:32:56;;;;;;;;;;;16.40;99.90;;;;;;5052746;28;20003;-69
2022/08/03 01:35:27;;;;;;;;;;;16.60;99.90;;;;;;5052737;28;19913;-69
2022/08/03 01:38:00;;;;;;;;;;;16.90;99.90;;;;;;5051472;28;19920;-69
2022/08/03 01:40:27;;;;;;;;;;;17.10;99.90;;;;;;5052634;28;19996;-69
2022/08/03 01:42:55;;;;;;;;;;;17.30;99.90;;;;;;5052611;28;19919;-69
2022/08/03 01:45:23;;;;;;;;;;;17.50;99.90;;;;;;5052748;28;20306;-69
2022/08/03 01:47:51;;;;;;;;;;;17.70;99.90;;;;;;5052473;28;19951;-69
2022/08/03 01:50:23;;;;;;;;;;;17.90;99.90;;;;;;5052415;28;19909;-69
2022/08/03 01:52:50;;;;;;;;;;;17.70;99.90;;;;;;5052410;28;20381;-69
2022/08/03 01:55:18;;;;;;;;;;;17.70;99.90;;;;;;5052435;28;19913;-69
2022/08/03 01:57:46;;;;;;;;;;;17.80;99.90;;;;;;5052536;28;20260;-69
2022/08/03 02:00:13;;;;;;;;;;;18.00;99.90;;;;;;5055947;28;19916;-69
2022/08/03 02:02:41;;;;;;;;;;;18.40;99.90;;;;;;5056170;28;19909;-69
2022/08/03 02:05:09;;;;;;;;;;;18.50;99.90;;;;;;5055986;28;19914;-69
2022/08/03 02:07:36;;;;;;;;;;;18.70;99.90;;;;;;5054693;28;19908;-68
2022/08/03 02:10:04;;;;;;;;;;;18.60;99.90;;;;;;5055669;28;19915;-69
2022/08/03 02:12:31;;;;;;;;;;;18.50;99.90;;;;;;5055783;28;19909;-67
2022/08/03 02:14:59;;;;;;;;;;;18.50;99.90;;;;;;5055958;28;19913;-67
2022/08/03 02:17:26;;;;;;;;;;;18.50;99.90;;;;;;5055793;28;20004;-67
2022/08/03 02:19:53;;;;;;;;;;;18.50;99.90;;;;;;5055625;28;20274;-68
2022/08/03 02:22:21;;;;;;;;;;;18.40;99.90;;;;;;5055558;28;20023;-69
2022/08/03 02:24:48;;;;;;;;;;;18.70;99.90;;;;;;5055796;28;20307;-67
2022/08/03 02:27:22;;;;;;;;;;;18.80;99.90;;;;;;5055655;28;19998;-69
2022/08/03 02:29:52;;;;;;;;;;;18.70;99.90;;;;;;5055569;28;19932;-67
2022/08/03 02:32:20;;;;;;;;;;;18.60;99.90;;;;;;5055271;28;19908;-69
2022/08/03 02:34:50;;;;;;;;;;;18.60;99.90;;;;;;5054232;28;19952;-69
2022/08/03 02:37:18;;;;;;;;;;;18.90;99.90;;;;;;5055266;28;19909;-69
2022/08/03 02:39:46;;;;;;;;;;;19.00;99.90;;;;;;5055440;28;19939;-67
2022/08/03 02:42:14;;;;;;;;;;;18.90;99.90;;;;;;5055018;28;19909;-67
2022/08/03 02:46:05;;;;;;;;;;;19.10;99.90;;;;;;5106021;27;19926;-68
2022/08/03 02:48:32;;;;;;;;;;;19.30;99.90;;;;;;5090666;28;19923;-68
2022/08/03 02:51:00;;;;;;;;;;;19.30;99.90;;;;;;5110496;28;19908;-69
2022/08/03 02:53:27;;;;;;;;;;;19.40;99.90;;;;;;5111114;28;19923;-68
2022/08/03 02:55:54;;;;;;;;;;;19.40;99.90;;;;;;5110862;28;19908;-68
2022/08/03 02:58:23;;;;;;;;;;;19.20;99.90;;;;;;5110718;28;20375;-68
2022/08/03 03:00:53;;;;;;;;;;;19.40;99.90;;;;;;5110292;28;19911;-68
2022/08/03 03:03:20;;;;;;;;;;;19.50;99.90;;;;;;5090315;28;20215;-69
2022/08/03 03:05:48;;;;;;;;;;;19.50;99.90;;;;;;5090196;28;19921;-68
2022/08/03 03:08:16;;;;;;;;;;;19.50;99.90;;;;;;5090081;28;19908;-68
2022/08/03 03:10:43;;;;;;;;;;;19.50;99.90;;;;;;5089789;28;19908;-69
2022/08/03 03:13:11;;;;;;;;;;;19.60;99.90;;;;;;5089209;28;19987;-68
2022/08/03 03:15:38;;;;;;;;;;;19.50;99.90;;;;;;5088215;28;19908;-69
2022/08/03 03:18:05;;;;;;;;;;;19.50;99.90;;;;;;5088002;28;19908;-68
2022/08/03 03:20:34;;;;;;;;;;;19.60;99.90;;;;;;5088187;28;19916;-69
2022/08/03 03:23:01;;;;;;;;;;;19.50;99.90;;;;;;5088182;28;19931;-68
2022/08/03 03:25:31;;;;;;;;;;;19.50;99.90;;;;;;5088071;28;19982;-68
2022/08/03 03:27:59;;;;;;;;;;;19.50;99.90;;;;;;5088019;28;19916;-68
2022/08/03 03:30:26;;;;;;;;;;;19.60;99.90;;;;;;5089772;28;19954;-68
2022/08/03 03:32:53;;;;;;;;;;;19.60;99.90;;;;;;5088649;28;20003;-69
2022/08/03 03:35:20;;;;;;;;;;;19.50;99.90;;;;;;5089879;28;20003;-68
2022/08/03 03:37:47;;;;;;;;;;;19.80;99.90;;;;;;5089964;28;20359;-68
2022/08/03 03:40:14;;;;;;;;;;;19.90;99.90;;;;;;5089561;28;19915;-68
2022/08/03 03:42:41;;;;;;;;;;;19.80;99.90;;;;;;5089912;28;20313;-68
2022/08/03 03:45:08;;;;;;;;;;;20.00;99.90;;;;;;5089504;28;19920;-68
2022/08/03 03:47:35;;;;;;;;;;;19.90;99.90;;;;;;5089845;28;19977;-69
2022/08/03 03:50:03;;;;;;;;;;;19.90;99.90;;;;;;5088569;28;19916;-68
2022/08/03 03:52:30;;;;;;;;;;;19.90;99.90;;;;;;5089592;28;20317;-68
2022/08/03 03:54:57;;;;;;;;;;;20.00;99.90;;;;;;5089582;28;20363;-67
2022/08/03 03:57:25;;;;;;;;;;;20.10;99.90;;;;;;5075909;28;19931;-68
2022/08/03 03:59:51;;;;;;;;;;;20.00;99.90;;;;;;5076003;28;19915;-68
2022/08/03 04:02:18;;;;;;;;;;;20.10;99.90;;;;;;5075881;28;19909;-68
2022/08/03 04:13:09;;;;;;;;;;;20.00;99.90;;;;;;5075970;28;19915;-68
2022/08/03 04:15:37;;;;;;;;;;;20.10;99.90;;;;;;5075744;28;19916;-68
2022/08/03 04:18:04;;;;;;;;;;;20.20;99.90;;;;;;5075652;28;20389;-68
2022/08/03 04:20:31;;;;;;;;;;;20.30;99.90;;;;;;5075632;28;19944;-68
2022/08/03 04:22:59;;;;;;;;;;;20.30;99.90;;;;;;5075636;28;19912;-69
2022/08/03 04:25:28;;;;;;;;;;;20.20;99.90;;;;;;5075411;28;19923;-69
2022/08/03 04:27:58;;;;;;;;;;;20.20;99.90;;;;;;5075421;28;19908;-69
2022/08/03 04:30:26;;;;;;;;;;;20.30;99.90;;;;;;5075261;28;19908;-70
2022/08/03 04:32:56;;;;;;;;;;;20.30;99.90;;;;;;5075527;28;19908;-69
2022/08/03 04:35:28;;;;;;;;;;;20.40;99.90;;;;;;5075208;28;20270;-70
2022/08/03 04:37:55;;;;;;;;;;;20.50;99.90;;;;;;5075400;28;19994;-69
2022/08/03 04:40:27;;;;;;;;;;;20.50;99.90;;;;;;5075233;28;19935;-69
2022/08/03 04:42:54;;;;;;;;;;;20.40;99.90;;;;;;5075329;28;19908;-69
2022/08/03 04:45:21;;;;;;;;;;;20.50;99.90;;;;;;5074921;28;20283;-69
2022/08/03 04:47:49;;;;;;;;;;;20.40;99.90;;;;;;5075166;28;19916;-69
2022/08/03 04:50:16;;;;;;;;;;;20.30;99.90;;;;;;5074563;28;19913;-69
2022/08/03 04:52:43;;;;;;;;;;;20.40;99.90;;;;;;5075019;28;19909;-69
2022/08/03 04:55:10;;;;;;;;;;;20.40;99.90;;;;;;5075096;28;19954;-69
2022/08/03 04:57:37;;;;;;;;;;;20.30;99.90;;;;;;5107412;28;19915;-69
2022/08/03 05:00:05;;;;;;;;;;;20.30;99.90;;;;;;5074511;28;19998;-69
2022/08/03 05:02:32;;;;;;;;;;;20.40;99.90;;;;;;5074950;28;20022;-70
2022/08/03 05:04:59;;;;;;;;;;;20.40;99.90;;;;;;5074482;28;19938;-69
2022/08/03 05:07:26;;;;;;;;;;;20.20;99.90;;;;;;5073901;28;19908;-69
2022/08/03 05:09:52;;;;;;;;;;;20.40;99.90;;;;;;5074525;28;19912;-69
2022/08/03 05:12:19;;;;;;;;;;;20.70;99.90;;;;;;5074497;28;19916;-69
2022/08/03 05:14:46;;;;;;;;;;;20.70;99.90;;;;;;5074485;28;20343;-70
2022/08/03 05:17:12;;;;;;;;;;;20.50;99.90;;;;;;5074554;28;19908;-69
2022/08/03 05:19:39;;;;;;;;;;;20.70;99.90;;;;;;5074377;28;20362;-69
2022/08/03 05:22:06;;;;;;;;;;;20.60;99.90;;;;;;5074125;28;19948;-69
2022/08/03 05:24:32;;;;;;;;;;;20.80;99.90;;;;;;5074306;28;19920;-69
2022/08/03 05:26:59;;;;;;;;;;;20.80;99.90;;;;;;5074410;28;19916;-69
2022/08/03 05:29:26;;;;;;;;;;;20.60;99.90;;;;;;5074303;28;19908;-69
2022/08/03 05:31:53;;;;;;;;;;;20.60;99.90;;;;;;5074259;28;20003;-69
2022/08/03 05:34:19;;;;;;;;;;;20.70;99.90;;;;;;5073824;28;20352;-69
2022/08/03 05:36:46;;;;;;;;;;;20.70;99.90;;;;;;5074313;28;20001;-69
2022/08/03 05:39:13;;;;;;;;;;;20.70;99.90;;;;;;5074149;28;19908;-69
2022/08/03 05:41:40;;;;;;;;;;;20.90;99.90;;;;;;5074172;28;19916;-69
2022/08/03 05:44:06;;;;;;;;;;;20.90;99.90;;;;;;5073544;28;20335;-69
2022/08/03 05:46:33;;;;;;;;;;;20.90;99.90;;;;;;5073901;28;19959;-69
2022/08/03 05:49:00;;;;;;;;;;;20.80;99.90;;;;;;5074045;28;20271;-69
2022/08/03 05:51:27;;;;;;;;;;;20.80;99.90;;;;;;5073740;28;19915;-70
2022/08/03 05:53:54;;;;;;;;;;;20.70;99.90;;;;;;5073915;28;19908;-69
2022/08/03 05:56:27;;;;;;;;;;;20.60;99.90;;;;;;5073651;28;19916;-69
2022/08/03 05:58:54;;;;;;;;;;;20.60;99.90;;;;;;5073809;28;20370;-69
2022/08/03 06:01:21;;;;;;;;;;;20.70;99.90;;;;;;5073844;28;19962;-69
2022/08/03 06:03:48;;;;;;;;;;;20.70;99.90;;;;;;5073634;28;19909;-69
2022/08/03 06:06:15;;;;;;;;;;;20.70;99.90;;;;;;5073397;28;19916;-69
2022/08/03 06:08:42;;;;;;;;;;;20.70;99.90;;;;;;5073714;28;19916;-69
2022/08/03 06:11:09;;;;;;;;;;;20.60;99.90;;;;;;5073611;28;20266;-69
2022/08/03 06:13:35;;;;;;;;;;;20.50;99.90;;;;;;5073710;28;19908;-70
2022/08/03 06:16:03;;;;;;;;;;;20.50;99.90;;;;;;5073349;28;19954;-70
2022/08/03 06:18:29;;;;;;;;;;;20.40;99.90;;;;;;5073382;28;19952;-69
2022/08/03 06:20:56;;;;;;;;;;;20.50;99.90;;;;;;5073343;28;19908;-68
2022/08/03 06:23:23;;;;;;;;;;;20.40;99.90;;;;;;5073415;28;19909;-69
2022/08/03 06:25:49;;;;;;;;;;;20.40;99.90;;;;;;5073408;28;20019;-71
2022/08/03 06:28:17;;;;;;;;;;;20.30;99.90;;;;;;5073104;28;19909;-69
2022/08/03 06:30:44;;;;;;;;;;;20.30;99.90;;;;;;5073126;28;19915;-69
2022/08/03 06:33:11;;;;;;;;;;;20.30;99.90;;;;;;5072912;28;20003;-69
2022/08/03 06:35:38;;;;;;;;;;;20.20;99.90;;;;;;5071869;28;19934;-69
2022/08/03 06:38:04;;;;;;;;;;;20.30;99.90;;;;;;5072987;28;19909;-69
2022/08/03 06:40:32;;;;;;;;;;;20.20;99.90;;;;;;5105561;28;19962;-70
2022/08/03 06:43:01;;;;;;;;;;;20.20;99.90;;;;;;5073061;28;19908;-69
2022/08/03 06:45:28;;;;;;;;;;;20.10;99.90;;;;;;5072884;28;20265;-69
2022/08/03 06:48:05;;;;;;;;;;;19.90;99.90;;;;;;5073155;28;19909;-69
2022/08/03 06:50:32;;;;;;;;;;;20.00;99.90;;;;;;5072579;28;20248;-69
2022/08/03 06:52:59;;;;;;;;;;;20.00;99.90;;;;;;5070297;28;19912;-69
2022/08/03 06:55:26;;;;;;;;;;;20.00;99.90;;;;;;5070970;28;19955;-69
2022/08/03 06:57:53;;;;;;;;;;;19.90;99.90;;;;;;5070997;28;20591;-69
2022/08/03 07:00:20;;;;;;;;;;;19.90;99.90;;;;;;5070693;28;19951;-69
2022/08/03 07:02:47;;;;;;;;;;;19.80;99.90;;;;;;5070745;28;19912;-69
2022/08/03 07:05:14;;;;;;;;;;;19.70;99.90;;;;;;5070100;28;20297;-69
2022/08/03 07:07:41;;;;;;;;;;;19.60;99.90;;;;;;5070866;28;20020;-70
2022/08/03 07:10:08;;;;;;;;;;;19.60;99.90;;;;;;5070685;28;19909;-70
2022/08/03 07:12:35;;;;;;;;;;;19.50;99.90;;;;;;5059477;28;20023;-69
2022/08/03 07:15:02;;;;;;;;;;;19.30;99.90;;;;;;5050481;28;19917;-70
2022/08/03 07:17:30;;;;;;;;;;;19.30;99.90;;;;;;5050240;28;19913;-69
2022/08/03 07:19:56;;;;;;;;;;;19.20;99.90;;;;;;5050358;28;19998;-70
2022/08/03 07:22:23;;;;;;;;;;;19.20;99.90;;;;;;5049212;28;20331;-69
2022/08/03 07:24:50;;;;;;;;;;;19.30;99.90;;;;;;5050647;28;19917;-69
2022/08/03 07:27:17;;;;;;;;;;;19.20;99.90;;;;;;5050136;28;19912;-69
2022/08/03 07:29:43;;;;;;;;;;;19.20;99.90;;;;;;5050565;28;19913;-69
2022/08/03 07:32:10;;;;;;;;;;;19.10;99.90;;;;;;5052748;28;19916;-69
2022/08/03 07:34:37;;;;;;;;;;;19.10;99.90;;;;;;5054052;28;20307;-69
2022/08/03 07:37:03;;;;;;;;;;;19.00;99.90;;;;;;5062128;28;19915;-68
2022/08/03 07:39:30;;;;;;;;;;;19.00;99.90;;;;;;5072028;28;19917;-68
2022/08/03 07:41:57;;;;;;;;;;;19.00;99.90;;;;;;5074145;28;19919;-69
2022/08/03 07:44:23;;;;;;;;;;;18.90;99.90;;;;;;5073778;28;19924;-69
2022/08/03 07:46:50;;;;;;;;;;;18.80;99.90;;;;;;5074066;28;20412;-69
2022/08/03 07:49:17;;;;;;;;;;;18.80;99.90;;;;;;5073923;28;19909;-69
2022/08/03 07:51:43;;;;;;;;;;;18.80;99.90;;;;;;5073628;28;19952;-69
2022/08/03 07:54:10;;;;;;;;;;;18.70;99.90;;;;;;5073732;28;19909;-69
2022/08/03 07:56:37;;;;;;;;;;;18.70;99.90;;;;;;5073792;28;19913;-68
2022/08/03 07:59:04;;;;;;;;;;;18.60;99.90;;;;;;5073969;28;20352;-69
2022/08/03 08:01:34;;;;;;;;;;;18.60;99.90;;;;;;5073748;28;20441;-69
2022/08/03 08:04:01;;;;;;;;;;;18.60;99.90;;;;;;5073215;28;20461;-69
2022/08/03 08:06:27;;;;;;;;;;;18.60;99.90;;;;;;5106388;28;20369;-69
2022/08/03 08:08:58;;;;;;;;;;;18.60;99.90;;;;;;5073704;28;19920;-68
2022/08/03 08:11:24;;;;;;;;;;;18.70;99.90;;;;;;5073944;28;19921;-69
2022/08/03 08:13:51;;;;;;;;;;;18.70;99.90;;;;;;5073614;28;19921;-69
2022/08/03 08:16:18;;;;;;;;;;;18.60;99.90;;;;;;5073413;28;19914;-69
2022/08/03 08:18:44;;;;;;;;;;;18.60;99.90;;;;;;5073225;28;20295;-69
2022/08/03 08:21:11;;;;;;;;;;;18.60;99.90;;;;;;5073505;28;19908;-69
2022/08/03 08:23:38;;;;;;;;;;;18.60;99.90;;;;;;5073446;28;19908;-69
2022/08/03 08:26:05;;;;;;;;;;;18.60;99.90;;;;;;5073109;28;19921;-69
2022/08/03 08:28:31;;;;;;;;;;;18.60;99.90;;;;;;5073270;28;20394;-69
2022/08/03 08:30:58;;;;;;;;;;;18.50;99.90;;;;;;5073025;28;19957;-70
2022/08/03 08:33:25;;;;;;;;;;;18.50;99.90;;;;;;5073278;28;19912;-68
2022/08/03 08:35:52;;;;;;;;;;;18.40;99.90;;;;;;5073256;28;20370;-69
2022/08/03 08:38:19;;;;;;;;;;;18.40;99.90;;;;;;5072820;28;19970;-68
2022/08/03 08:40:45;;;;;;;;;;;18.50;99.90;;;;;;5071640;28;19940;-68
2022/08/03 08:43:12;;;;;;;;;;;18.40;99.90;;;;;;5072420;28;19958;-69
2022/08/03 08:45:40;;;;;;;;;;;18.50;99.90;;;;;;5072355;28;19920;-68
2022/08/03 08:48:07;;;;;;;;;;;18.50;99.90;;;;;;5072899;28;20415;-68
2022/08/03 08:50:34;;;;;;;;;;;18.40;99.90;;;;;;5071569;28;20031;-68
2022/08/03 08:53:04;;;;;;;;;;;18.40;99.90;;;;;;5073056;28;19913;-68
2022/08/03 08:55:31;;;;;;;;;;;18.40;99.90;;;;;;5072902;28;19913;-69
2022/08/03 08:58:01;;;;;;;;;;;18.30;99.90;;;;;;5072555;28;19936;-68
2022/08/03 09:00:29;;;;;;;;;;;18.40;99.90;;;;;;5071690;28;19930;-68
2022/08/03 09:02:56;;;;;;;;;;;18.30;99.90;;;;;;5073971;28;20258;-68
2022/08/03 09:05:23;;;;;;;;;;;18.20;99.90;;;;;;5074640;28;19920;-68
2022/08/03 09:07:49;;;;;;;;;;;18.20;99.90;;;;;;5074709;28;19912;-68
2022/08/03 09:10:20;;;;;;;;;;;18.20;99.90;;;;;;5074349;28;19999;-68
2022/08/03 09:12:48;;;;;;;;;;;18.10;99.90;;;;;;5074541;28;19930;-68
2022/08/03 09:15:25;;;;;;;;;;;18.00;99.90;;;;;;5074574;28;19940;-68
2022/08/03 09:17:53;;;;;;;;;;;18.00;99.90;;;;;;5074592;28;20350;-68
2022/08/03 09:20:20;;;;;;;;;;;17.90;99.90;;;;;;5074191;28;20000;-68
2022/08/03 09:22:58;;;;;;;;;;;17.90;99.90;;;;;;5070443;28;19931;-68
2022/08/03 09:25:30;;;;;;;;;;;17.80;99.90;;;;;;5074198;28;19923;-68
2022/08/03 09:28:17;;;;;;;;;;;17.70;99.90;;;;;;5074275;28;20327;-68
2022/08/03 09:30:45;;;;;;;;;;;17.60;99.90;;;;;;5074363;28;19908;-68
2022/08/03 09:33:15;;;;;;;;;;;17.60;99.90;;;;;;5073966;28;19913;-68
2022/08/03 09:35:46;;;;;;;;;;;17.50;99.90;;;;;;5073574;28;19909;-68
2022/08/03 09:38:13;;;;;;;;;;;17.40;99.90;;;;;;5073866;28;20012;-68
2022/08/03 09:40:41;;;;;;;;;;;17.50;99.90;;;;;;5074054;28;19915;-68
2022/08/03 09:43:08;;;;;;;;;;;17.50;99.90;;;;;;5073956;28;19934;-68
2022/08/03 09:45:35;;;;;;;;;;;17.60;99.90;;;;;;5073673;28;19920;-68
2022/08/03 09:48:20;;;;;;;;;;;17.70;99.90;;;;;;5073712;28;19908;-67
2022/08/03 09:50:48;;;;;;;;;;;17.80;99.90;;;;;;5073215;28;19908;-68
2022/08/03 09:53:15;;;;;;;;;;;18.00;99.90;;;;;;5073469;28;19916;-68
2022/08/03 09:55:49;;;;;;;;;;;18.10;99.90;;;;;;5073755;28;20065;-68
2022/08/03 09:58:16;;;;;;;;;;;18.10;99.90;;;;;;5073596;28;19909;-68
2022/08/03 10:01:02;;;;;;;;;;;18.20;99.90;;;;;;5073718;28;20270;-68
2022/08/03 10:03:30;;;;;;;;;;;18.10;99.90;;;;;;5073664;28;19931;-68
2022/08/03 10:05:57;;;;;;;;;;;18.20;99.90;;;;;;5073675;28;19917;-68
2022/08/03 10:08:24;;;;;;;;;;;18.10;99.90;;;;;;5073414;28;20066;-68
2022/08/03 10:10:56;;;;;;;;;;;18.10;99.90;;;;;;5073854;28;19909;-68
2022/08/03 10:13:23;;;;;;;;;;;18.10;99.90;;;;;;5073587;28;19909;-68
2022/08/03 10:15:50;;;;;;;;;;;18.20;99.90;;;;;;5073356;28;19908;-68
2022/08/03 10:18:16;;;;;;;;;;;18.20;99.90;;;;;;5073157;28;20271;-68
2022/08/03 10:20:47;;;;;;;;;;;18.30;99.90;;;;;;5072085;28;20335;-68
2022/08/03 10:23:16;;;;;;;;;;;18.30;99.90;;;;;;5073418;28;20239;-68
2022/08/03 10:25:43;;;;;;;;;;;18.30;99.90;;;;;;5073310;28;19920;-68
2022/08/03 10:28:12;;;;;;;;;;;18.20;99.90;;;;;;5073143;28;20278;-68
2022/08/03 10:30:40;;;;;;;;;;;18.20;99.90;;;;;;5073234;28;19908;-68
2022/08/03 10:33:12;;;;;;;;;;;18.20;99.90;;;;;;5073235;28;19915;-68
2022/08/03 10:35:40;;;;;;;;;;;18.20;99.90;;;;;;5073184;28;19931;-68
2022/08/03 10:38:17;;;;;;;;;;;18.20;99.90;;;;;;5061591;28;19913;-69
2022/08/03 10:40:44;;;;;;;;;;;18.20;99.90;;;;;;5053286;28;19915;-68
2022/08/03 10:43:18;;;;;;;;;;;18.10;99.90;;;;;;5053422;28;20287;-68
2022/08/03 10:45:45;;;;;;;;;;;18.10;99.90;;;;;;5052948;28;20264;-69
2022/08/03 10:48:12;;;;;;;;;;;18.10;99.90;;;;;;5052835;28;19915;-69
2022/08/03 10:50:42;;;;;;;;;;;18.10;99.90;;;;;;5052428;28;19913;-68
2022/08/03 10:53:09;;;;;;;;;;;18.00;99.90;;;;;;5053117;28;19978;-68
2022/08/03 10:58:45;;;;;;;;;;;18.00;99.90;;;;;;5053128;28;19916;-68
2022/08/03 11:01:12;;;;;;;;;;;18.00;99.90;;;;;;5052879;28;19909;-69
2022/08/03 11:04:07;;;;;;;;;;;18.00;99.90;;;;;;5052825;28;20271;-68
2022/08/03 11:06:34;;;;;;;;;;;18.00;99.90;;;;;;5049431;28;19917;-69
2022/08/03 11:09:10;;;;;;;;;;;18.00;99.90;;;;;;5055304;28;19909;-68
2022/08/03 11:11:37;;;;;;;;;;;18.00;99.90;;;;;;5055180;28;19968;-69
2022/08/03 11:14:11;;;;;;;;;;;18.00;99.90;;;;;;5054626;28;19919;-68
2022/08/03 11:16:43;;;;;;;;;;;18.00;99.90;;;;;;5054882;28;19909;-68
2022/08/03 11:19:11;;;;;;;;;;;18.00;99.90;;;;;;5054687;28;19913;-69
2022/08/03 11:21:50;;;;;;;;;;;17.90;99.90;;;;;;5053913;28;19919;-68
2022/08/03 11:24:35;;;;;;;;;;;17.90;99.90;;;;;;5054233;28;20467;-68
2022/08/03 11:27:22;;;;;;;;;;;17.90;99.90;;;;;;5054700;28;19917;-68
2022/08/03 11:30:01;;;;;;;;;;;17.90;99.90;;;;;;5054406;28;19915;-69
2022/08/03 11:32:39;;;;;;;;;;;17.90;99.90;;;;;;5054647;28;19908;-69
2022/08/03 11:35:07;;;;;;;;;;;17.80;99.90;;;;;;5054137;28;20387;-68
2022/08/03 11:37:33;;;;;;;;;;;17.80;99.90;;;;;;5054581;28;19967;-68
2022/08/03 11:40:00;;;;;;;;;;;17.80;99.90;;;;;;5054404;28;20260;-68
2022/08/03 11:42:28;;;;;;;;;;;17.80;99.90;;;;;;5054461;28;20268;-68
2022/08/03 11:44:55;;;;;;;;;;;17.80;99.90;;;;;;5054167;28;19928;-68
2022/08/03 11:47:23;;;;;;;;;;;17.80;99.90;;;;;;5054208;28;20378;-69
2022/08/03 11:49:50;;;;;;;;;;;17.80;99.90;;;;;;5054005;28;19920;-68
2022/08/03 11:52:18;;;;;;;;;;;17.80;99.90;;;;;;5053916;28;19913;-68
2022/08/03 11:54:45;;;;;;;;;;;17.70;99.90;;;;;;5054225;28;19909;-68
2022/08/03 11:57:12;;;;;;;;;;;17.80;99.90;;;;;;5054169;28;19924;-68
2022/08/03 11:59:38;;;;;;;;;;;17.70;99.90;;;;;;5054094;28;19913;-69
2022/08/03 12:02:10;;;;;;;;;;;17.60;99.90;;;;;;5053445;28;19913;-68
2022/08/03 12:04:52;;;;;;;;;;;17.60;99.90;;;;;;5054040;28;19986;-68
2022/08/03 12:07:20;;;;;;;;;;;17.50;99.90;;;;;;5052561;28;19909;-68
2022/08/03 12:10:04;;;;;;;;;;;17.60;99.90;;;;;;5053883;28;19951;-68
2022/08/03 12:12:31;;;;;;;;;;;17.60;99.90;;;;;;5053993;28;19908;-68
2022/08/03 12:14:58;;;;;;;;;;;17.50;99.90;;;;;;5053596;28;20375;-68
2022/08/03 12:17:32;;;;;;;;;;;17.50;99.90;;;;;;5053254;28;19909;-68
2022/08/03 12:19:59;;;;;;;;;;;17.50;99.90;;;;;;5053818;28;20321;-68
2022/08/03 12:22:38;;;;;;;;;;;17.50;99.90;;;;;;5053475;28;19932;-69
2022/08/03 12:25:08;;;;;;;;;;;17.50;99.90;;;;;;5053624;28;19944;-68
2022/08/03 12:27:35;;;;;;;;;;;17.40;99.90;;;;;;5053299;28;19960;-68
2022/08/03 12:30:02;;;;;;;;;;;17.40;99.90;;;;;;5053422;28;20355;-68
2022/08/03 12:32:30;;;;;;;;;;;17.40;99.90;;;;;;5053435;28;19908;-68
2022/08/03 12:35:03;;;;;;;;;;;17.40;99.90;;;;;;5053902;28;19912;-70
2022/08/03 12:37:29;;;;;;;;;;;17.40;99.90;;;;;;5053343;28;19935;-68
2022/08/03 12:40:00;;;;;;;;;;;17.40;99.90;;;;;;5052947;28;19909;-68
2022/08/03 12:42:33;;;;;;;;;;;17.40;99.90;;;;;;5053277;28;19955;-68
2022/08/03 12:45:00;;;;;;;;;;;17.30;99.90;;;;;;5052825;28;20333;-68
2022/08/03 12:47:27;;;;;;;;;;;17.30;99.90;;;;;;5052613;28;20291;-68
2022/08/03 12:49:54;;;;;;;;;;;17.20;99.90;;;;;;5051933;28;19955;-68
2022/08/03 12:52:21;;;;;;;;;;;17.20;99.90;;;;;;5052829;28;20471;-68
2022/08/03 12:54:55;;;;;;;;;;;17.20;99.90;;;;;;5052635;28;19938;-68
2022/08/03 12:57:21;;;;;;;;;;;17.10;99.90;;;;;;5052961;28;19919;-68
2022/08/03 12:59:48;;;;;;;;;;;17.20;99.90;;;;;;5052999;28;20386;-68
2022/08/03 13:02:19;;;;;;;;;;;17.20;99.90;;;;;;5052124;28;19913;-68
2022/08/03 13:04:47;;;;;;;;;;;17.10;99.90;;;;;;5051431;28;19917;-69
2022/08/03 13:07:14;;;;;;;;;;;17.10;99.90;;;;;;5051964;28;19920;-69
2022/08/03 13:09:42;;;;;;;;;;;17.00;99.90;;;;;;5072000;28;19916;-69
2022/08/03 13:12:09;;;;;;;;;;;17.00;99.90;;;;;;5074700;28;20386;-68
2022/08/03 13:14:36;;;;;;;;;;;17.00;99.90;;;;;;5074735;28;19908;-68
2022/08/03 13:17:05;;;;;;;;;;;17.00;99.90;;;;;;5074605;28;19916;-69
2022/08/03 13:19:35;;;;;;;;;;;17.10;99.90;;;;;;5074663;28;19908;-69
2022/08/03 13:22:12;;;;;;;;;;;17.10;99.90;;;;;;5074442;28;20195;-68
2022/08/03 13:24:39;;;;;;;;;;;17.10;99.90;;;;;;5074516;28;20397;-69
2022/08/03 13:27:07;;;;;;;;;;;17.20;99.90;;;;;;5074516;28;19908;-68
2022/08/03 13:29:34;;;;;;;;;;;17.20;99.90;;;;;;5073686;28;20346;-68
2022/08/03 13:32:01;;;;;;;;;;;17.20;99.90;;;;;;5074310;28;20420;-68
2022/08/03 13:34:28;;;;;;;;;;;17.20;99.90;;;;;;5074396;28;20426;-68
2022/08/03 13:36:55;;;;;;;;;;;17.20;99.90;;;;;;5074330;28;19952;-68
2022/08/03 13:39:21;;;;;;;;;;;17.20;99.90;;;;;;5074350;28;20251;-69
2022/08/03 13:41:48;;;;;;;;;;;17.20;99.90;;;;;;5074362;28;19908;-68
2022/08/03 13:44:15;;;;;;;;;;;17.10;99.90;;;;;;5073770;28;19966;-69
2022/08/03 13:46:42;;;;;;;;;;;17.10;99.90;;;;;;5074084;28;20397;-68
2022/08/03 13:49:09;;;;;;;;;;;17.20;99.90;;;;;;5074122;28;19912;-69
2022/08/03 13:51:35;;;;;;;;;;;17.10;99.90;;;;;;5074105;28;19916;-69
2022/08/03 13:54:02;;;;;;;;;;;17.20;99.90;;;;;;5073909;28;19913;-69
2022/08/03 13:56:29;;;;;;;;;;;17.20;99.90;;;;;;5074027;28;19953;-69
2022/08/03 13:58:56;;;;;;;;;;;17.20;99.90;;;;;;5073877;28;19915;-69
2022/08/03 14:01:24;;;;;;;;;;;17.20;99.90;;;;;;5073848;28;20359;-69
2022/08/03 14:03:55;;;;;;;;;;;17.10;99.90;;;;;;5073725;28;19916;-69
2022/08/03 14:06:22;;;;;;;;;;;17.10;99.90;;;;;;5073639;28;19990;-69
2022/08/03 14:08:49;;;;;;;;;;;17.10;99.90;;;;;;5073763;28;19912;-69
2022/08/03 14:11:16;;;;;;;;;;;17.10;99.90;;;;;;5073791;28;19909;-68
2022/08/03 14:13:43;;;;;;;;;;;17.10;99.90;;;;;;5073753;28;19908;-69
2022/08/03 14:16:10;;;;;;;;;;;17.10;99.90;;;;;;5073541;28;19991;-69
2022/08/03 14:18:37;;;;;;;;;;;17.00;99.90;;;;;;5073579;28;19909;-69
2022/08/03 14:21:05;;;;;;;;;;;17.10;99.90;;;;;;5106014;28;19931;-69
2022/08/03 14:23:32;;;;;;;;;;;17.10;99.90;;;;;;5073632;28;19908;-68
2022/08/03 14:25:59;;;;;;;;;;;17.10;99.90;;;;;;5073464;28;19960;-69
2022/08/03 14:28:25;;;;;;;;;;;17.10;99.90;;;;;;5073387;28;19908;-68
2022/08/03 14:30:52;;;;;;;;;;;17.10;99.90;;;;;;5073508;28;19920;-69
2022/08/03 14:33:20;;;;;;;;;;;17.10;99.90;;;;;;5073321;28;19908;-68
2022/08/03 14:35:47;;;;;;;;;;;17.00;99.90;;;;;;5073602;28;20329;-69